^^
Grace C. Lehan Memorial Weather Station Historical Data
Daily Summary for July 23, 2021 Units:  Both    English   Metric
Daily Weekly Monthly Yearly
  High: Low: Average:
Temperature: 44.8 °F /  7.1 °C 32.9 °F /  0.5 °C 37.8 °F /  3.2 °C
Dew Point: 35.5 °F /  1.9 °C 30.8 °F /  -0.7 °C 33.2 °F /  0.7 °C
Humidity: 93% 58.2% 84%
Wind Speed: 3.7mph /  6km/h - 0.7mph /  1.1km/h
Wind Gust: 12mph /  19.3km/h - -
Wind- - SW
Pressure: 29.73 in /  1006.7 hPa 29.54 in /  1000.2 hPa -
Precipitation: 0.02 in /  0.51 mm    
 
 
Tabular Data for July 23, 2021
Time Temperature Dew Point Pressure Wind Wind Speed Wind Gust Humidity Rainfall Rate (Hourly) solar
00:04 34.6 °F /  1.4 °C 32.5 °F /  0.3 °C 29.65in /  1003.9hPa WSW 0.4mph /  0.6km/h 9mph /  14.5km/h 92% 0.00in /  0mm 0 W/m2
00:09 34.5 °F /  1.4 °C 32.4 °F /  0.2 °C 29.65in /  1003.9hPa WSW 0.7mph /  1.1km/h 6mph /  9.7km/h 92% 0.00in /  0mm 0 W/m2
00:14 34.4 °F /  1.3 °C 32.3 °F /  0.2 °C 29.65in /  1003.9hPa WSW 0.3mph /  0.5km/h 9mph /  14.5km/h 92% 0.00in /  0mm 0 W/m2
00:19 34.3 °F /  1.3 °C 32.2 °F /  0.1 °C 29.65in /  1003.9hPa Calm   9mph /  14.5km/h 91.7% 0.00in /  0mm 0 W/m2
00:24 34.2 °F /  1.2 °C 32 °F /  0 °C 29.65in /  1003.9hPa WSW 0.2mph /  0.3km/h 9mph /  14.5km/h 91.6% 0.00in /  0mm 0 W/m2
00:29 34.1 °F /  1.2 °C 31.9 °F /  -0.1 °C 29.65in /  1003.9hPa Calm   9mph /  14.5km/h 91.3% 0.00in /  0mm 0 W/m2
00:34 34.1 °F /  1.2 °C 32 °F /  0 °C 29.65in /  1003.9hPa Calm   9mph /  14.5km/h 91.9% 0.00in /  0mm 0 W/m2
00:39 34 °F /  1.1 °C 31.7 °F /  -0.2 °C 29.65in /  1003.9hPa WSW 0.2mph /  0.3km/h 2mph /  3.2km/h 91.3% 0.00in /  0mm 0 W/m2
00:44 33.9 °F /  1.1 °C 31.8 °F /  -0.1 °C 29.65in /  1003.9hPa Calm   2mph /  3.2km/h 92% 0.00in /  0mm 0 W/m2
00:49 33.8 °F /  1 °C 31.7 °F /  -0.2 °C 29.65in /  1003.9hPa Calm   2mph /  3.2km/h 92% 0.00in /  0mm 0 W/m2
00:54 33.7 °F /  0.9 °C 31.6 °F /  -0.2 °C 29.65in /  1003.9hPa WSW 0.5mph /  0.8km/h 3mph /  4.8km/h 91.9% 0.00in /  0mm 0 W/m2
00:59 33.6 °F /  0.9 °C 31.3 °F /  -0.4 °C 29.64in /  1003.6hPa Calm   3mph /  4.8km/h 91% 0.00in /  0mm 0 W/m2
01:04 33.6 °F /  0.9 °C 31.4 °F /  -0.3 °C 29.64in /  1003.6hPa Calm   3mph /  4.8km/h 91.6% 0.00in /  0mm 0 W/m2
01:09 33.5 °F /  0.8 °C 31.4 °F /  -0.3 °C 29.64in /  1003.6hPa Calm     91.8% 0.00in /  0mm 0 W/m2
01:14 33.4 °F /  0.8 °C 31.1 °F /  -0.5 °C 29.64in /  1003.6hPa Calm     91% 0.00in /  0mm 0 W/m2
01:19 33.3 °F /  0.7 °C 31 °F /  -0.6 °C 29.64in /  1003.6hPa Calm     91% 0.00in /  0mm 0 W/m2
01:24 33.2 °F /  0.7 °C 30.9 °F /  -0.6 °C 29.65in /  1003.9hPa Calm     91.2% 0.00in /  0mm 0 W/m2
01:29 33.1 °F /  0.6 °C 31 °F /  -0.6 °C 29.65in /  1003.9hPa Calm     92% 0.00in /  0mm 0 W/m2
01:34 33.1 °F /  0.6 °C 31 °F /  -0.6 °C 29.65in /  1003.9hPa Calm     92% 0.00in /  0mm 0 W/m2
01:39 33.2 °F /  0.7 °C 31.1 °F /  -0.5 °C 29.65in /  1003.9hPa Calm     92% 0.00in /  0mm 0 W/m2
01:44 33.2 °F /  0.7 °C 31.1 °F /  -0.5 °C 29.66in /  1004.3hPa WSW 0.1mph /  0.2km/h 3mph /  4.8km/h 92% 0.00in /  0mm 0 W/m2
01:49 33.1 °F /  0.6 °C 31 °F /  -0.6 °C 29.66in /  1004.3hPa Calm   3mph /  4.8km/h 92% 0.00in /  0mm 0 W/m2
01:54 33 °F /  0.6 °C 30.9 °F /  -0.6 °C 29.66in /  1004.3hPa Calm   3mph /  4.8km/h 92% 0.00in /  0mm 0 W/m2
01:59 33 °F /  0.6 °C 30.9 °F /  -0.6 °C 29.66in /  1004.3hPa Calm   3mph /  4.8km/h 92% 0.00in /  0mm 0 W/m2
02:04 32.9 °F /  0.5 °C 30.8 °F /  -0.7 °C 29.66in /  1004.3hPa Calm   3mph /  4.8km/h 92% 0.00in /  0mm 0 W/m2
02:09 32.9 °F /  0.5 °C 30.8 °F /  -0.7 °C 29.66in /  1004.3hPa Calm     92% 0.00in /  0mm 0 W/m2
02:14 33 °F /  0.6 °C 30.9 °F /  -0.6 °C 29.65in /  1003.9hPa Calm     92% 0.00in /  0mm 0 W/m2
02:19 33.1 °F /  0.6 °C 31.2 °F /  -0.4 °C 29.65in /  1003.9hPa WSW 0.1mph /  0.2km/h 3mph /  4.8km/h 92.8% 0.00in /  0mm 0 W/m2
02:24 33.2 °F /  0.7 °C 31.4 °F /  -0.3 °C 29.65in /  1003.9hPa Calm   3mph /  4.8km/h 93% 0.00in /  0mm 0 W/m2
02:29 33.2 °F /  0.7 °C 31.3 °F /  -0.4 °C 29.65in /  1003.9hPa Calm   3mph /  4.8km/h 92.7% 0.00in /  0mm 0 W/m2
02:34 33.2 °F /  0.7 °C 31.1 °F /  -0.5 °C 29.65in /  1003.9hPa WSW 0.3mph /  0.5km/h 3mph /  4.8km/h 92% 0.00in /  0mm 0 W/m2
02:39 33.1 °F /  0.6 °C 31 °F /  -0.6 °C 29.64in /  1003.6hPa WSW 1.2mph /  1.9km/h 6mph /  9.7km/h 92% 0.00in /  0mm 0 W/m2
02:44 33.2 °F /  0.7 °C 31.1 °F /  -0.5 °C 29.64in /  1003.6hPa WSW 0.7mph /  1.1km/h 6mph /  9.7km/h 92% 0.00in /  0mm 0 W/m2
02:49 33.2 °F /  0.7 °C 31.3 °F /  -0.4 °C 29.64in /  1003.6hPa WSW 0.1mph /  0.2km/h 6mph /  9.7km/h 92.5% 0.00in /  0mm 0 W/m2
02:54 33.3 °F /  0.7 °C 31.4 °F /  -0.3 °C 29.64in /  1003.6hPa WSW 0.2mph /  0.3km/h 6mph /  9.7km/h 92.6% 0.00in /  0mm 0 W/m2
02:59 33.5 °F /  0.8 °C 31.7 °F /  -0.2 °C 29.64in /  1003.6hPa Calm   6mph /  9.7km/h 93% 0.00in /  0mm 0 W/m2
03:04 33.6 °F /  0.9 °C 31.8 °F /  -0.1 °C 29.65in /  1003.9hPa Calm   6mph /  9.7km/h 93% 0.00in /  0mm 0 W/m2
03:09 33.7 °F /  0.9 °C 31.9 °F /  -0.1 °C 29.65in /  1003.9hPa Calm     93% 0.00in /  0mm 0 W/m2
03:14 33.8 °F /  1 °C 32 °F /  0 °C 29.65in /  1003.9hPa Calm     93% 0.00in /  0mm 0 W/m2
03:19 33.9 °F /  1.1 °C 32.1 °F /  0.1 °C 29.65in /  1003.9hPa WSW 0.3mph /  0.5km/h 4mph /  6.4km/h 93% 0.00in /  0mm 0 W/m2
03:24 34 °F /  1.1 °C 32.1 °F /  0.1 °C 29.65in /  1003.9hPa WSW 0.4mph /  0.6km/h 4mph /  6.4km/h 92.5% 0.00in /  0mm 0 W/m2
03:29 34.1 °F /  1.2 °C 32.2 °F /  0.1 °C 29.65in /  1003.9hPa Calm   4mph /  6.4km/h 92.6% 0.00in /  0mm 0 W/m2
03:34 34.2 °F /  1.2 °C 32.1 °F /  0.1 °C 29.65in /  1003.9hPa WSW 0.1mph /  0.2km/h 4mph /  6.4km/h 92.1% 0.00in /  0mm 0 W/m2
03:39 34.2 °F /  1.2 °C 32.1 °F /  0.1 °C 29.65in /  1003.9hPa WSW 0.1mph /  0.2km/h 3mph /  4.8km/h 92% 0.00in /  0mm 0 W/m2
03:44 34.3 °F /  1.3 °C 32.2 °F /  0.1 °C 29.66in /  1004.3hPa Calm   3mph /  4.8km/h 92% 0.00in /  0mm 0 W/m2
03:49 34.4 °F /  1.3 °C 32.3 °F /  0.2 °C 29.66in /  1004.3hPa Calm   3mph /  4.8km/h 92% 0.00in /  0mm 0 W/m2
03:54 34.4 °F /  1.3 °C 32.3 °F /  0.2 °C 29.66in /  1004.3hPa Calm   3mph /  4.8km/h 92% 0.00in /  0mm 0 W/m2
03:59 34.5 °F /  1.4 °C 32.4 °F /  0.2 °C 29.66in /  1004.3hPa Calm   3mph /  4.8km/h 92% 0.00in /  0mm 0 W/m2
04:04 34.6 °F /  1.4 °C 32.3 °F /  0.2 °C 29.65in /  1003.9hPa Calm   3mph /  4.8km/h 91.3% 0.00in /  0mm 0 W/m2
04:09 34.6 °F /  1.4 °C 32.2 °F /  0.1 °C 29.65in /  1003.9hPa Calm     91% 0.00in /  0mm 0 W/m2
04:14 34.7 °F /  1.5 °C 32.3 °F /  0.2 °C 29.65in /  1003.9hPa Calm     91% 0.00in /  0mm 0 W/m2
04:19 34.7 °F /  1.5 °C 32.4 °F /  0.2 °C 29.66in /  1004.3hPa Calm     91% 0.00in /  0mm 0 W/m2
04:24 34.7 °F /  1.5 °C 32.4 °F /  0.2 °C 29.66in /  1004.3hPa Calm     91% 0.00in /  0mm 0 W/m2
04:29 34.7 °F /  1.5 °C 32.4 °F /  0.2 °C 29.65in /  1003.9hPa Calm     91% 0.00in /  0mm 0 W/m2
04:34 34.6 °F /  1.4 °C 32.2 °F /  0.1 °C 29.65in /  1003.9hPa Calm     91% 0.00in /  0mm 0 W/m2
04:39 34.6 °F /  1.4 °C 32.2 °F /  0.1 °C 29.65in /  1003.9hPa WSW 0.1mph /  0.2km/h 1mph /  1.6km/h 91% 0.00in /  0mm 0 W/m2
04:44 34.5 °F /  1.4 °C 32.1 °F /  0.1 °C 29.65in /  1003.9hPa Calm   1mph /  1.6km/h 91% 0.00in /  0mm 0 W/m2
04:49 34.4 °F /  1.3 °C 32 °F /  0 °C 29.65in /  1003.9hPa Calm   1mph /  1.6km/h 91% 0.00in /  0mm 0 W/m2
04:54 34.4 °F /  1.3 °C 31.9 °F /  -0.1 °C 29.66in /  1004.3hPa Calm   1mph /  1.6km/h 90.3% 0.00in /  0mm 0 W/m2
04:59 34.3 °F /  1.3 °C 31.8 °F /  -0.1 °C 29.66in /  1004.3hPa Calm   1mph /  1.6km/h 90.5% 0.00in /  0mm 0 W/m2
05:04 34.3 °F /  1.3 °C 31.9 °F /  -0.1 °C 29.66in /  1004.3hPa Calm   1mph /  1.6km/h 91% 0.00in /  0mm 0 W/m2
05:09 34.3 °F /  1.3 °C 31.9 °F /  -0.1 °C 29.66in /  1004.3hPa Calm   1mph /  1.6km/h 91% 0.00in /  0mm 0 W/m2
05:14 34.3 °F /  1.3 °C 31.9 °F /  -0.1 °C 29.66in /  1004.3hPa Calm   1mph /  1.6km/h 91% 0.00in /  0mm 0 W/m2
05:19 34.4 °F /  1.3 °C 32 °F /  0 °C 29.66in /  1004.3hPa Calm   1mph /  1.6km/h 91% 0.00in /  0mm 0 W/m2
05:24 34.4 °F /  1.3 °C 32 °F /  0 °C 29.66in /  1004.3hPa Calm   1mph /  1.6km/h 91% 0.00in /  0mm 0 W/m2
05:29 34.5 °F /  1.4 °C 32.1 °F /  0.1 °C 29.66in /  1004.3hPa Calm   1mph /  1.6km/h 91% 0.00in /  0mm 0 W/m2
05:34 34.5 °F /  1.4 °C 32.1 °F /  0.1 °C 29.66in /  1004.3hPa Calm   1mph /  1.6km/h 91% 0.00in /  0mm 0 W/m2
05:39 34.6 °F /  1.4 °C 32.2 °F /  0.1 °C 29.66in /  1004.3hPa Calm     91% 0.00in /  0mm 0 W/m2
05:44 34.6 °F /  1.4 °C 32.2 °F /  0.1 °C 29.65in /  1003.9hPa Calm     91% 0.00in /  0mm 0 W/m2
05:49 34.7 °F /  1.5 °C 32.2 °F /  0.1 °C 29.65in /  1003.9hPa Calm     90.5% 0.00in /  0mm 0 W/m2
05:54 34.7 °F /  1.5 °C 32.1 °F /  0.1 °C 29.65in /  1003.9hPa Calm     90% 0.00in /  0mm 0 W/m2
05:59 34.7 °F /  1.5 °C 32.1 °F /  0.1 °C 29.64in /  1003.6hPa Calm     90% 0.00in /  0mm 0 W/m2
06:04 34.6 °F /  1.4 °C 32 °F /  0 °C 29.64in /  1003.6hPa Calm     90% 0.00in /  0mm 0 W/m2
06:09 34.6 °F /  1.4 °C 32 °F /  0 °C 29.65in /  1003.9hPa Calm     90% 0.00in /  0mm 0 W/m2
06:14 34.6 °F /  1.4 °C 32 °F /  0 °C 29.65in /  1003.9hPa Calm     90% 0.00in /  0mm 0 W/m2
06:19 34.5 °F /  1.4 °C 31.9 °F /  -0.1 °C 29.65in /  1003.9hPa Calm     90% 0.00in /  0mm 0 W/m2
06:24 34.5 °F /  1.4 °C 31.9 °F /  -0.1 °C 29.65in /  1003.9hPa Calm     90% 0.00in /  0mm 0 W/m2
06:29 34.4 °F /  1.3 °C 31.8 °F /  -0.1 °C 29.65in /  1003.9hPa Calm     90% 0.00in /  0mm 0 W/m2
06:34 34.3 °F /  1.3 °C 31.7 °F /  -0.2 °C 29.66in /  1004.3hPa Calm     90% 0.00in /  0mm 0 W/m2
06:39 34.1 °F /  1.2 °C 31.5 °F /  -0.3 °C 29.66in /  1004.3hPa Calm     90% 0.00in /  0mm 0 W/m2
06:44 34 °F /  1.1 °C 31.4 °F /  -0.3 °C 29.66in /  1004.3hPa Calm     90% 0.00in /  0mm 7 W/m2
06:49 33.9 °F /  1.1 °C 31.3 °F /  -0.4 °C 29.66in /  1004.3hPa Calm     90% 0.00in /  0mm 12 W/m2
06:54 33.9 °F /  1.1 °C 31.5 °F /  -0.3 °C 29.66in /  1004.3hPa Calm     90.7% 0.00in /  0mm 18 W/m2
06:59 34 °F /  1.1 °C 31.6 °F /  -0.2 °C 29.66in /  1004.3hPa Calm     91% 0.00in /  0mm 21 W/m2
07:04 34 °F /  1.1 °C 31.7 °F /  -0.2 °C 29.66in /  1004.3hPa Calm     91% 0.00in /  0mm 21 W/m2
07:09 34.1 °F /  1.2 °C 31.8 °F /  -0.1 °C 29.65in /  1003.9hPa Calm     91% 0.00in /  0mm 21 W/m2
07:14 34.1 °F /  1.2 °C 31.8 °F /  -0.1 °C 29.65in /  1003.9hPa Calm     91% 0.00in /  0mm 25 W/m2
07:18 34.2 °F /  1.2 °C 31.9 °F /  -0.1 °C 29.65in /  1003.9hPa Calm     91% 0.00in /  0mm 46 W/m2
07:24 34.3 °F /  1.3 °C 31.9 °F /  -0.1 °C 29.65in /  1003.9hPa Calm     91% 0.00in /  0mm 67 W/m2
07:29 34.5 °F /  1.4 °C 32.1 °F /  0.1 °C 29.65in /  1003.9hPa Calm     91% 0.00in /  0mm 97 W/m2
07:34 34.8 °F /  1.6 °C 32.4 °F /  0.2 °C 29.65in /  1003.9hPa Calm     91% 0.00in /  0mm 95 W/m2
07:39 35 °F /  1.7 °C 32.6 °F /  0.3 °C 29.65in /  1003.9hPa Calm     91% 0.00in /  0mm 63 W/m2
07:44 35.3 °F /  1.8 °C 32.7 °F /  0.4 °C 29.66in /  1004.3hPa Calm     90.4% 0.00in /  0mm 58 W/m2
07:49 35.4 °F /  1.9 °C 32.6 °F /  0.3 °C 29.66in /  1004.3hPa Calm     89.5% 0.00in /  0mm 54 W/m2
07:54 35.5 °F /  1.9 °C 32.6 °F /  0.3 °C 29.66in /  1004.3hPa Calm     89% 0.00in /  0mm 72 W/m2
07:59 35.6 °F /  2 °C 32.4 °F /  0.2 °C 29.66in /  1004.3hPa WSW 0.2mph /  0.3km/h 3mph /  4.8km/h 88% 0.00in /  0mm 97 W/m2
08:00 35.7 °F /  2.1 °C 32.5 °F /  0.3 °C 29.66in /  1004.3hPa Calm   3mph /  4.8km/h 88% 0.00in /  0mm 58 W/m2
08:09 35.9 °F /  2.2 °C 32.4 °F /  0.2 °C 29.66in /  1004.3hPa Calm     87% 0.00in /  0mm 65 W/m2
08:14 36 °F /  2.2 °C 32.5 °F /  0.3 °C 29.66in /  1004.3hPa Calm     87% 0.00in /  0mm 111 W/m2
08:19 36.1 °F /  2.3 °C 32.6 °F /  0.3 °C 29.66in /  1004.3hPa Calm     87% 0.00in /  0mm 148 W/m2
08:24 36.3 °F /  2.4 °C 32.7 °F /  0.4 °C 29.65in /  1003.9hPa WSW 0.3mph /  0.5km/h 2mph /  3.2km/h 86.8% 0.00in /  0mm 250 W/m2
08:29 36.7 °F /  2.6 °C 33.2 °F /  0.7 °C 29.65in /  1003.9hPa WSW 0.1mph /  0.2km/h 3mph /  4.8km/h 86.8% 0.00in /  0mm 250 W/m2
08:34 37.3 °F /  2.9 °C 33.5 °F /  0.8 °C 29.65in /  1003.9hPa Calm   3mph /  4.8km/h 86% 0.00in /  0mm 258 W/m2
08:39 38 °F /  3.3 °C 34 °F /  1.1 °C 29.65in /  1003.9hPa Calm     85.4% 0.00in /  0mm 218 W/m2
08:44 38.5 °F /  3.6 °C 33.9 °F /  1.1 °C 29.65in /  1003.9hPa Calm     83.4% 0.00in /  0mm 185 W/m2
08:49 38.8 °F /  3.8 °C 33.3 °F /  0.7 °C 29.64in /  1003.6hPa SW 1.7mph /  2.7km/h 10mph /  16.1km/h 80.3% 0.00in /  0mm 269 W/m2
08:54 39.1 °F /  3.9 °C 32.8 °F /  0.4 °C 29.63in /  1003.3hPa SW 0.2mph /  0.3km/h 10mph /  16.1km/h 78.2% 0.00in /  0mm 246 W/m2
08:59 39.4 °F /  4.1 °C 32.9 °F /  0.5 °C 29.63in /  1003.3hPa SW 1mph /  1.6km/h 10mph /  16.1km/h 77.3% 0.01in /  0.25mm 220 W/m2
09:04 39.6 °F /  4.2 °C 32.4 °F /  0.2 °C 29.63in /  1003.3hPa SW 0.2mph /  0.3km/h 10mph /  16.1km/h 75.1% 0.01in /  0.25mm 149 W/m2
09:09 39.7 °F /  4.3 °C 32.5 °F /  0.3 °C 29.63in /  1003.3hPa SW 0.3mph /  0.5km/h 3mph /  4.8km/h 75.3% 0.01in /  0.25mm 185 W/m2
09:14 39.6 °F /  4.2 °C 32.1 °F /  0.1 °C 29.62in /  1002.9hPa SW 0.4mph /  0.6km/h 3mph /  4.8km/h 74.2% 0.01in /  0.25mm 207 W/m2
09:19 39.7 °F /  4.3 °C 32.3 °F /  0.2 °C 29.62in /  1002.9hPa SW 0.7mph /  1.1km/h 4mph /  6.4km/h 74.8% 0.01in /  0.25mm 320 W/m2
09:24 39.8 °F /  4.3 °C 32.5 °F /  0.3 °C 29.62in /  1002.9hPa Calm   4mph /  6.4km/h 75% 0.01in /  0.25mm 316 W/m2
09:29 40.3 °F /  4.6 °C 32.9 °F /  0.5 °C 29.63in /  1003.3hPa SW 0.5mph /  0.8km/h 4mph /  6.4km/h 74.8% 0.01in /  0.25mm 411 W/m2
09:34 40.9 °F /  4.9 °C 32.8 °F /  0.4 °C 29.63in /  1003.3hPa SW 1.6mph /  2.6km/h 7mph /  11.3km/h 72.5% 0.01in /  0.25mm 394 W/m2
09:39 41.3 °F /  5.2 °C 32.6 °F /  0.3 °C 29.63in /  1003.3hPa SW 3mph /  4.8km/h 7mph /  11.3km/h 71% 0.01in /  0.25mm 397 W/m2
09:44 41.5 °F /  5.3 °C 32.5 °F /  0.3 °C 29.63in /  1003.3hPa SW 2.1mph /  3.4km/h 7mph /  11.3km/h 70% 0.01in /  0.25mm 468 W/m2
09:49 41.7 °F /  5.4 °C 32.6 °F /  0.3 °C 29.63in /  1003.3hPa SW 2mph /  3.2km/h 7mph /  11.3km/h 69.9% 0.01in /  0.25mm 422 W/m2
09:54 41.8 °F /  5.4 °C 32.6 °F /  0.3 °C 29.63in /  1003.3hPa SW 1.5mph /  2.4km/h 7mph /  11.3km/h 69.5% 0.01in /  0.25mm 408 W/m2
09:59 42.1 °F /  5.6 °C 32.8 °F /  0.4 °C 29.63in /  1003.3hPa SW 2.8mph /  4.5km/h 7mph /  11.3km/h 69.2% 0.01in /  0.25mm 424 W/m2
10:02 42.3 °F /  5.7 °C 32.5 °F /  0.3 °C 29.63in /  1003.3hPa SW 2mph /  3.2km/h 10mph /  16.1km/h 68% 0.01in /  0.25mm 422 W/m2
10:30 43.7 °F /  6.5 °C 33.5 °F /  0.8 °C 29.61in /  1002.6hPa WSW 2mph /  3.2km/h 12mph /  19.3km/h 67% 0.00in /  0mm 420 W/m2
11:09 44 °F /  6.7 °C 32.3 °F /  0.2 °C 29.61in /  1002.6hPa SW 0.7mph /  1.1km/h 12mph /  19.3km/h 63.2% 0.01in /  0.25mm 420 W/m2
11:14 43.8 °F /  6.6 °C 32.5 °F /  0.3 °C 29.60in /  1002.3hPa SW 0.9mph /  1.4km/h 6mph /  9.7km/h 64.2% 0.01in /  0.25mm 367 W/m2
11:19 43.7 °F /  6.5 °C 32.1 °F /  0.1 °C 29.60in /  1002.3hPa SW 1.9mph /  3.1km/h 6mph /  9.7km/h 63.4% 0.01in /  0.25mm 352 W/m2
11:24 43.7 °F /  6.5 °C 32.3 °F /  0.2 °C 29.59in /  1001.9hPa SW 1.4mph /  2.3km/h 6mph /  9.7km/h 64% 0.01in /  0.25mm 457 W/m2
11:29 43.8 °F /  6.6 °C 32 °F /  0 °C 29.59in /  1001.9hPa SW 1.8mph /  2.9km/h 6mph /  9.7km/h 63.1% 0.01in /  0.25mm 503 W/m2
11:34 44.1 °F /  6.7 °C 32.1 °F /  0.1 °C 29.59in /  1001.9hPa SW 2.7mph /  4.3km/h 8mph /  12.9km/h 62.5% 0.01in /  0.25mm 410 W/m2
11:39 44.3 °F /  6.8 °C 32.1 °F /  0.1 °C 29.59in /  1001.9hPa SW 1.1mph /  1.8km/h 6mph /  9.7km/h 62% 0.01in /  0.25mm 425 W/m2
11:44 44.6 °F /  7 °C 32.3 °F /  0.2 °C 29.59in /  1001.9hPa SW 2.3mph /  3.7km/h 6mph /  9.7km/h 61.8% 0.01in /  0.25mm 404 W/m2
11:49 44.7 °F /  7.1 °C 31.8 °F /  -0.1 °C 29.58in /  1001.6hPa South 2.4mph /  3.9km/h 7mph /  11.3km/h 60.3% 0.01in /  0.25mm 403 W/m2
11:54 44.5 °F /  6.9 °C 31.4 °F /  -0.3 °C 29.58in /  1001.6hPa South 2mph /  3.2km/h 7mph /  11.3km/h 59.8% 0.01in /  0.25mm 413 W/m2
11:59 44.5 °F /  6.9 °C 31.6 °F /  -0.2 °C 29.58in /  1001.6hPa SW 2.6mph /  4.2km/h 10mph /  16.1km/h 60.1% 0.01in /  0.25mm 325 W/m2
12:00 44.6 °F /  7 °C 31.6 °F /  -0.2 °C 29.57in /  1001.2hPa SW 3mph /  4.8km/h 10mph /  16.1km/h 60% 0.01in /  0.25mm 297 W/m2
12:09 44.7 °F /  7.1 °C 31.3 °F /  -0.4 °C 29.57in /  1001.2hPa SW 0.8mph /  1.3km/h 3mph /  4.8km/h 59% 0.00in /  0mm 294 W/m2
12:14 44.7 °F /  7.1 °C 31.2 °F /  -0.4 °C 29.57in /  1001.2hPa SW 2.3mph /  3.7km/h 7mph /  11.3km/h 58.7% 0.00in /  0mm 285 W/m2
12:19 44.8 °F /  7.1 °C 31.3 °F /  -0.4 °C 29.56in /  1000.9hPa SW 1.8mph /  2.9km/h 10mph /  16.1km/h 58.9% 0.00in /  0mm 262 W/m2
12:24 44.7 °F /  7.1 °C 31 °F /  -0.6 °C 29.56in /  1000.9hPa SW 3.2mph /  5.1km/h 10mph /  16.1km/h 58.2% 0.00in /  0mm 250 W/m2
12:29 44.5 °F /  6.9 °C 31.1 °F /  -0.5 °C 29.56in /  1000.9hPa SW 1.1mph /  1.8km/h 10mph /  16.1km/h 58.8% 0.00in /  0mm 230 W/m2
12:34 44.5 °F /  6.9 °C 31.5 °F /  -0.3 °C 29.56in /  1000.9hPa SW 0.8mph /  1.3km/h 10mph /  16.1km/h 60.1% 0.00in /  0mm 197 W/m2
12:39 44.3 °F /  6.8 °C 31.3 °F /  -0.4 °C 29.56in /  1000.9hPa SW 1.6mph /  2.6km/h 4mph /  6.4km/h 59.9% 0.00in /  0mm 179 W/m2
12:44 44.2 °F /  6.8 °C 31.4 °F /  -0.3 °C 29.56in /  1000.9hPa SW 3.7mph /  6km/h 11mph /  17.7km/h 60.6% 0.00in /  0mm 146 W/m2
12:49 43.9 °F /  6.6 °C 31.9 °F /  -0.1 °C 29.56in /  1000.9hPa West 2.7mph /  4.3km/h 11mph /  17.7km/h 62.6% 0.00in /  0mm 153 W/m2
12:54 43.5 °F /  6.4 °C 32.2 °F /  0.1 °C 29.56in /  1000.9hPa SW 2.2mph /  3.5km/h 11mph /  17.7km/h 64.2% 0.00in /  0mm 130 W/m2
12:59 43.1 °F /  6.2 °C 32.4 °F /  0.2 °C 29.56in /  1000.9hPa SW 2mph /  3.2km/h 11mph /  17.7km/h 65.7% 0.00in /  0mm 74 W/m2
13:04 42.8 °F /  6 °C 32.6 °F /  0.3 °C 29.56in /  1000.9hPa SW 1mph /  1.6km/h 11mph /  17.7km/h 66.8% 0.00in /  0mm 97 W/m2
13:09 42.6 °F /  5.9 °C 32.8 °F /  0.4 °C 29.56in /  1000.9hPa WSW 1.6mph /  2.6km/h 7mph /  11.3km/h 68% 0.00in /  0mm 116 W/m2
13:14 42.3 °F /  5.7 °C 33.1 °F /  0.6 °C 29.56in /  1000.9hPa SW 3mph /  4.8km/h 10mph /  16.1km/h 69.6% 0.00in /  0mm 114 W/m2
13:19 42.1 °F /  5.6 °C 33.3 °F /  0.7 °C 29.56in /  1000.9hPa SW 1.8mph /  2.9km/h 11mph /  17.7km/h 70.8% 0.00in /  0mm 116 W/m2
13:24 41.9 °F /  5.5 °C 33.6 °F /  0.9 °C 29.56in /  1000.9hPa SW 2.3mph /  3.7km/h 11mph /  17.7km/h 72.2% 0.00in /  0mm 98 W/m2
13:29 41.5 °F /  5.3 °C 33.7 °F /  0.9 °C 29.56in /  1000.9hPa SW 2.2mph /  3.5km/h 11mph /  17.7km/h 73.6% 0.00in /  0mm 104 W/m2
13:34 41.2 °F /  5.1 °C 34.1 °F /  1.2 °C 29.56in /  1000.9hPa SW 1.1mph /  1.8km/h 11mph /  17.7km/h 75.5% 0.00in /  0mm 91 W/m2
13:39 40.9 °F /  4.9 °C 34.6 °F /  1.4 °C 29.56in /  1000.9hPa SW 1.6mph /  2.6km/h 6mph /  9.7km/h 77.8% 0.00in /  0mm 83 W/m2
13:44 40.6 °F /  4.8 °C 34.5 °F /  1.4 °C 29.56in /  1000.9hPa SW 2.2mph /  3.5km/h 9mph /  14.5km/h 78.6% 0.00in /  0mm 98 W/m2
13:49 40.3 °F /  4.6 °C 34.6 °F /  1.4 °C 29.56in /  1000.9hPa SW 2.1mph /  3.4km/h 9mph /  14.5km/h 80.1% 0.00in /  0mm 95 W/m2
13:54 40.1 °F /  4.5 °C 34.7 °F /  1.5 °C 29.56in /  1000.9hPa SW 0.8mph /  1.3km/h 9mph /  14.5km/h 81.1% 0.00in /  0mm 86 W/m2
13:59 39.9 °F /  4.4 °C 34.9 °F /  1.6 °C 29.56in /  1000.9hPa SW 1.5mph /  2.4km/h 9mph /  14.5km/h 82% 0.00in /  0mm 84 W/m2
14:04 39.8 °F /  4.3 °C 35.1 °F /  1.7 °C 29.56in /  1000.9hPa SW 0.7mph /  1.1km/h 9mph /  14.5km/h 83% 0.00in /  0mm 72 W/m2
14:09 39.7 °F /  4.3 °C 35 °F /  1.7 °C 29.55in /  1000.6hPa SW 0.4mph /  0.6km/h 3mph /  4.8km/h 83% 0.00in /  0mm 58 W/m2
14:14 39.6 °F /  4.2 °C 35.1 °F /  1.7 °C 29.55in /  1000.6hPa SW 1.4mph /  2.3km/h 5mph /  8km/h 83.6% 0.00in /  0mm 69 W/m2
14:19 39.5 °F /  4.2 °C 35.1 °F /  1.7 °C 29.55in /  1000.6hPa SW 2.4mph /  3.9km/h 7mph /  11.3km/h 84% 0.00in /  0mm 91 W/m2
14:24 39.5 °F /  4.2 °C 35.1 °F /  1.7 °C 29.55in /  1000.6hPa SW 1.2mph /  1.9km/h 7mph /  11.3km/h 84% 0.00in /  0mm 125 W/m2
14:29 39.5 °F /  4.2 °C 35.1 °F /  1.7 °C 29.54in /  1000.2hPa SW 1.4mph /  2.3km/h 7mph /  11.3km/h 84% 0.00in /  0mm 149 W/m2
14:34 39.6 °F /  4.2 °C 35.2 °F /  1.8 °C 29.54in /  1000.2hPa SW 1.2mph /  1.9km/h 7mph /  11.3km/h 84% 0.00in /  0mm 162 W/m2
14:39 39.8 °F /  4.3 °C 35.4 °F /  1.9 °C 29.54in /  1000.2hPa SW 2.3mph /  3.7km/h 6mph /  9.7km/h 84% 0.00in /  0mm 197 W/m2
14:44 40 °F /  4.4 °C 35.4 °F /  1.9 °C 29.54in /  1000.2hPa SW 3.1mph /  5km/h 9mph /  14.5km/h 83.3% 0.00in /  0mm 179 W/m2
14:49 40.1 °F /  4.5 °C 35.4 °F /  1.9 °C 29.54in /  1000.2hPa SW 1.6mph /  2.6km/h 9mph /  14.5km/h 83% 0.00in /  0mm 167 W/m2
14:54 40.2 °F /  4.6 °C 35.5 °F /  1.9 °C 29.54in /  1000.2hPa SW 1.7mph /  2.7km/h 9mph /  14.5km/h 83% 0.00in /  0mm 116 W/m2
14:59 40.2 °F /  4.6 °C 35.2 °F /  1.8 °C 29.54in /  1000.2hPa SW 2.6mph /  4.2km/h 9mph /  14.5km/h 82.2% 0.00in /  0mm 121 W/m2
15:04 40.2 °F /  4.6 °C 35.1 °F /  1.7 °C 29.54in /  1000.2hPa SW 2.4mph /  3.9km/h 9mph /  14.5km/h 82% 0.00in /  0mm 139 W/m2
15:09 40.2 °F /  4.6 °C 35.1 °F /  1.7 °C 29.54in /  1000.2hPa SW 2.4mph /  3.9km/h 9mph /  14.5km/h 82% 0.00in /  0mm 113 W/m2
15:14 40.3 °F /  4.6 °C 35.2 °F /  1.8 °C 29.54in /  1000.2hPa SW 0.9mph /  1.4km/h 9mph /  14.5km/h 82% 0.00in /  0mm 104 W/m2
15:19 40.3 °F /  4.6 °C 35.2 °F /  1.8 °C 29.54in /  1000.2hPa SW 1.6mph /  2.6km/h 9mph /  14.5km/h 82% 0.00in /  0mm 90 W/m2
15:24 40.3 °F /  4.6 °C 35.3 °F /  1.8 °C 29.54in /  1000.2hPa SW 0.8mph /  1.3km/h 9mph /  14.5km/h 82% 0.00in /  0mm 76 W/m2
15:29 40.4 °F /  4.7 °C 35.4 °F /  1.9 °C 29.55in /  1000.6hPa SW 1.7mph /  2.7km/h 9mph /  14.5km/h 82% 0.00in /  0mm 105 W/m2
15:34 40.4 °F /  4.7 °C 35.3 °F /  1.8 °C 29.55in /  1000.6hPa SW 2.4mph /  3.9km/h 9mph /  14.5km/h 82% 0.00in /  0mm 102 W/m2
15:39 40.3 °F /  4.6 °C 35.2 °F /  1.8 °C 29.55in /  1000.6hPa WSW 0.8mph /  1.3km/h 6mph /  9.7km/h 82% 0.00in /  0mm 58 W/m2
15:44 40.3 °F /  4.6 °C 35.2 °F /  1.8 °C 29.55in /  1000.6hPa WSW 1.5mph /  2.4km/h 7mph /  11.3km/h 82% 0.00in /  0mm 65 W/m2
15:49 40.1 °F /  4.5 °C 35.1 °F /  1.7 °C 29.55in /  1000.6hPa WSW 0.6mph /  1km/h 7mph /  11.3km/h 82% 0.00in /  0mm 86 W/m2
15:54 40.1 °F /  4.5 °C 35.1 °F /  1.7 °C 29.55in /  1000.6hPa WSW 2mph /  3.2km/h 8mph /  12.9km/h 82% 0.00in /  0mm 76 W/m2
15:59 40 °F /  4.4 °C 35 °F /  1.7 °C 29.55in /  1000.6hPa SW 2.1mph /  3.4km/h 8mph /  12.9km/h 82% 0.00in /  0mm 81 W/m2
16:00 40 °F /  4.4 °C 35 °F /  1.7 °C 29.55in /  1000.6hPa SW 1mph /  1.6km/h 8mph /  12.9km/h 82% 0.00in /  0mm 81 W/m2
16:09 40 °F /  4.4 °C 35 °F /  1.7 °C 29.56in /  1000.9hPa SW 0.5mph /  0.8km/h 3mph /  4.8km/h 82% 0.00in /  0mm 128 W/m2
16:14 40.1 °F /  4.5 °C 35.1 °F /  1.7 °C 29.56in /  1000.9hPa SW 1.6mph /  2.6km/h 10mph /  16.1km/h 82% 0.00in /  0mm 114 W/m2
16:19 40.2 °F /  4.6 °C 35.1 °F /  1.7 °C 29.56in /  1000.9hPa SW 1.5mph /  2.4km/h 10mph /  16.1km/h 82% 0.00in /  0mm 95 W/m2
16:24 40.2 °F /  4.6 °C 35.1 °F /  1.7 °C 29.56in /  1000.9hPa WSW 1.1mph /  1.8km/h 10mph /  16.1km/h 82% 0.00in /  0mm 83 W/m2
16:29 40.2 °F /  4.6 °C 35.1 °F /  1.7 °C 29.56in /  1000.9hPa SW 1.1mph /  1.8km/h 10mph /  16.1km/h 82% 0.00in /  0mm 63 W/m2
16:34 40.2 °F /  4.6 °C 35.1 °F /  1.7 °C 29.56in /  1000.9hPa SW 0.7mph /  1.1km/h 10mph /  16.1km/h 82% 0.00in /  0mm 47 W/m2
16:39 40.1 °F /  4.5 °C 35.1 °F /  1.7 °C 29.56in /  1000.9hPa SW 0.9mph /  1.4km/h 7mph /  11.3km/h 82% 0.00in /  0mm 39 W/m2
16:44 40 °F /  4.4 °C 35 °F /  1.7 °C 29.56in /  1000.9hPa SW 0.6mph /  1km/h 7mph /  11.3km/h 82% 0.00in /  0mm 40 W/m2
16:49 39.9 °F /  4.4 °C 35.2 °F /  1.8 °C 29.56in /  1000.9hPa SW 0.5mph /  0.8km/h 7mph /  11.3km/h 82.9% 0.00in /  0mm 35 W/m2
16:54 39.8 °F /  4.3 °C 35.1 °F /  1.7 °C 29.56in /  1000.9hPa SW 0.4mph /  0.6km/h 7mph /  11.3km/h 83% 0.00in /  0mm 25 W/m2
16:59 39.7 °F /  4.3 °C 35 °F /  1.7 °C 29.57in /  1001.2hPa SW 0.9mph /  1.4km/h 7mph /  11.3km/h 83% 0.00in /  0mm 18 W/m2
17:04 39.6 °F /  4.2 °C 34.9 °F /  1.6 °C 29.57in /  1001.2hPa SW 0.6mph /  1km/h 7mph /  11.3km/h 83% 0.00in /  0mm 19 W/m2
17:09 39.5 °F /  4.2 °C 34.9 °F /  1.6 °C 29.57in /  1001.2hPa WSW 1.9mph /  3.1km/h 10mph /  16.1km/h 83.5% 0.00in /  0mm 18 W/m2
17:14 39.3 °F /  4.1 °C 34.9 °F /  1.6 °C 29.57in /  1001.2hPa SW 1.7mph /  2.7km/h 10mph /  16.1km/h 84% 0.00in /  0mm 14 W/m2
17:19 39.3 °F /  4.1 °C 34.9 °F /  1.6 °C 29.57in /  1001.2hPa SW 0.6mph /  1km/h 10mph /  16.1km/h 84% 0.00in /  0mm 9 W/m2
17:24 39.2 °F /  4 °C 34.8 °F /  1.6 °C 29.58in /  1001.6hPa SW 0.6mph /  1km/h 10mph /  16.1km/h 84.1% 0.00in /  0mm 7 W/m2
17:29 39.1 °F /  3.9 °C 35 °F /  1.7 °C 29.58in /  1001.6hPa SW 0.1mph /  0.2km/h 10mph /  16.1km/h 85% 0.00in /  0mm 5 W/m2
17:34 39.1 °F /  3.9 °C 35 °F /  1.7 °C 29.59in /  1001.9hPa Calm   10mph /  16.1km/h 85% 0.00in /  0mm 0 W/m2
17:39 39 °F /  3.9 °C 34.9 °F /  1.6 °C 29.59in /  1001.9hPa SW 0.4mph /  0.6km/h 6mph /  9.7km/h 85% 0.00in /  0mm 0 W/m2
17:44 38.9 °F /  3.8 °C 34.8 °F /  1.6 °C 29.59in /  1001.9hPa SW 0.2mph /  0.3km/h 6mph /  9.7km/h 85% 0.00in /  0mm 0 W/m2
17:49 38.9 °F /  3.8 °C 34.8 °F /  1.6 °C 29.59in /  1001.9hPa SW 0.2mph /  0.3km/h 6mph /  9.7km/h 85% 0.00in /  0mm 0 W/m2
17:54 38.9 °F /  3.8 °C 34.8 °F /  1.6 °C 29.59in /  1001.9hPa WSW 0.8mph /  1.3km/h 6mph /  9.7km/h 85% 0.00in /  0mm 0 W/m2
17:59 38.8 °F /  3.8 °C 34.7 °F /  1.5 °C 29.60in /  1002.3hPa WSW 0.4mph /  0.6km/h 6mph /  9.7km/h 85% 0.00in /  0mm 0 W/m2
18:04 38.9 °F /  3.8 °C 34.8 °F /  1.6 °C 29.60in /  1002.3hPa WSW 0.2mph /  0.3km/h 6mph /  9.7km/h 85% 0.00in /  0mm 0 W/m2
18:09 38.9 °F /  3.8 °C 34.8 °F /  1.6 °C 29.60in /  1002.3hPa WSW 0.1mph /  0.2km/h 2mph /  3.2km/h 85% 0.00in /  0mm 0 W/m2
18:14 38.8 °F /  3.8 °C 34.7 °F /  1.5 °C 29.61in /  1002.6hPa WSW 0.1mph /  0.2km/h 2mph /  3.2km/h 85% 0.00in /  0mm 0 W/m2
18:19 38.8 °F /  3.8 °C 34.7 °F /  1.5 °C 29.61in /  1002.6hPa WSW 0.1mph /  0.2km/h 2mph /  3.2km/h 85% 0.00in /  0mm 0 W/m2
18:24 38.8 °F /  3.8 °C 34.7 °F /  1.5 °C 29.61in /  1002.6hPa Calm   2mph /  3.2km/h 85% 0.00in /  0mm 0 W/m2
18:29 38.7 °F /  3.7 °C 34.6 °F /  1.4 °C 29.61in /  1002.6hPa Calm   2mph /  3.2km/h 85% 0.00in /  0mm 0 W/m2
18:34 38.6 °F /  3.7 °C 34.5 °F /  1.4 °C 29.61in /  1002.6hPa Calm   2mph /  3.2km/h 85% 0.00in /  0mm 0 W/m2
18:39 38.4 °F /  3.6 °C 34.3 °F /  1.3 °C 29.61in /  1002.6hPa Calm     85% 0.00in /  0mm 0 W/m2
18:44 38.3 °F /  3.5 °C 34.3 °F /  1.3 °C 29.62in /  1002.9hPa Calm     85.2% 0.00in /  0mm 0 W/m2
18:49 38.3 °F /  3.5 °C 34.5 °F /  1.4 °C 29.62in /  1002.9hPa WSW 0.2mph /  0.3km/h 3mph /  4.8km/h 86% 0.00in /  0mm 0 W/m2
18:54 38.2 °F /  3.4 °C 34.4 °F /  1.3 °C 29.62in /  1002.9hPa Calm   3mph /  4.8km/h 86% 0.00in /  0mm 0 W/m2
18:59 38.1 °F /  3.4 °C 34.3 °F /  1.3 °C 29.62in /  1002.9hPa Calm   3mph /  4.8km/h 86% 0.00in /  0mm 0 W/m2
19:04 38 °F /  3.3 °C 34.2 °F /  1.2 °C 29.62in /  1002.9hPa Calm   3mph /  4.8km/h 86% 0.00in /  0mm 0 W/m2
19:09 38 °F /  3.3 °C 34.2 °F /  1.2 °C 29.63in /  1003.3hPa Calm     86% 0.00in /  0mm 0 W/m2
19:14 37.9 °F /  3.3 °C 34.1 °F /  1.2 °C 29.63in /  1003.3hPa Calm     86% 0.00in /  0mm 0 W/m2
19:19 37.8 °F /  3.2 °C 34 °F /  1.1 °C 29.63in /  1003.3hPa Calm     86% 0.00in /  0mm 0 W/m2
19:24 37.7 °F /  3.2 °C 33.9 °F /  1.1 °C 29.63in /  1003.3hPa Calm     86% 0.00in /  0mm 0 W/m2
19:29 37.6 °F /  3.1 °C 33.8 °F /  1 °C 29.63in /  1003.3hPa Calm     86% 0.00in /  0mm 0 W/m2
19:34 37.5 °F /  3.1 °C 34 °F /  1.1 °C 29.64in /  1003.6hPa Calm     86.9% 0.00in /  0mm 0 W/m2
19:39 37.4 °F /  3 °C 33.9 °F /  1.1 °C 29.64in /  1003.6hPa Calm     87% 0.00in /  0mm 0 W/m2
19:44 37.4 °F /  3 °C 33.9 °F /  1.1 °C 29.64in /  1003.6hPa WSW 0.1mph /  0.2km/h 3mph /  4.8km/h 87% 0.00in /  0mm 0 W/m2
19:49 37.4 °F /  3 °C 33.9 °F /  1.1 °C 29.64in /  1003.6hPa Calm   3mph /  4.8km/h 87% 0.00in /  0mm 0 W/m2
19:54 37.5 °F /  3.1 °C 34.1 °F /  1.2 °C 29.64in /  1003.6hPa Calm   3mph /  4.8km/h 87.3% 0.00in /  0mm 0 W/m2
19:59 37.5 °F /  3.1 °C 34.3 °F /  1.3 °C 29.65in /  1003.9hPa WSW 0.5mph /  0.8km/h 3mph /  4.8km/h 88% 0.00in /  0mm 0 W/m2
20:00 37.6 °F /  3.1 °C 34.4 °F /  1.3 °C 29.65in /  1003.9hPa Calm   3mph /  4.8km/h 88% 0.00in /  0mm 0 W/m2
20:09 37.7 °F /  3.2 °C 34.2 °F /  1.2 °C 29.65in /  1003.9hPa WSW 0.2mph /  0.3km/h 3mph /  4.8km/h 87% 0.00in /  0mm 0 W/m2
20:14 37.8 °F /  3.2 °C 34.5 °F /  1.4 °C 29.66in /  1004.3hPa WSW 0.2mph /  0.3km/h 3mph /  4.8km/h 87.6% 0.00in /  0mm 0 W/m2
20:19 38 °F /  3.3 °C 34.6 °F /  1.4 °C 29.66in /  1004.3hPa Calm   3mph /  4.8km/h 87.3% 0.00in /  0mm 0 W/m2
20:24 38.1 °F /  3.4 °C 34.6 °F /  1.4 °C 29.66in /  1004.3hPa WSW 0.1mph /  0.2km/h 3mph /  4.8km/h 87% 0.00in /  0mm 0 W/m2
20:29 38.3 °F /  3.5 °C 34.8 °F /  1.6 °C 29.66in /  1004.3hPa WSW 0.1mph /  0.2km/h 3mph /  4.8km/h 87% 0.00in /  0mm 0 W/m2
20:34 38.4 °F /  3.6 °C 34.9 °F /  1.6 °C 29.67in /  1004.6hPa Calm   3mph /  4.8km/h 87% 0.00in /  0mm 0 W/m2
20:39 38.5 °F /  3.6 °C 34.8 °F /  1.6 °C 29.67in /  1004.6hPa WSW 0.2mph /  0.3km/h 3mph /  4.8km/h 86.2% 0.00in /  0mm 0 W/m2
20:44 38.6 °F /  3.7 °C 34.8 °F /  1.6 °C 29.67in /  1004.6hPa Calm   3mph /  4.8km/h 86% 0.00in /  0mm 0 W/m2
20:49 38.7 °F /  3.7 °C 34.9 °F /  1.6 °C 29.67in /  1004.6hPa WSW 0.6mph /  1km/h 4mph /  6.4km/h 86% 0.00in /  0mm 0 W/m2
20:54 38.8 °F /  3.8 °C 35 °F /  1.7 °C 29.68in /  1005hPa WSW 0.5mph /  0.8km/h 7mph /  11.3km/h 86% 0.00in /  0mm 0 W/m2
20:59 38.8 °F /  3.8 °C 35 °F /  1.7 °C 29.68in /  1005hPa WSW 0.5mph /  0.8km/h 7mph /  11.3km/h 86% 0.00in /  0mm 0 W/m2
21:04 38.9 °F /  3.8 °C 34.9 °F /  1.6 °C 29.68in /  1005hPa WSW 1.2mph /  1.9km/h 7mph /  11.3km/h 85.2% 0.00in /  0mm 0 W/m2
21:09 39 °F /  3.9 °C 34.9 °F /  1.6 °C 29.69in /  1005.3hPa SW 0.6mph /  1km/h 6mph /  9.7km/h 85% 0.00in /  0mm 0 W/m2
21:14 39.1 °F /  3.9 °C 35 °F /  1.7 °C 29.69in /  1005.3hPa SW 0.9mph /  1.4km/h 6mph /  9.7km/h 85% 0.00in /  0mm 0 W/m2
21:19 39.1 °F /  3.9 °C 35 °F /  1.7 °C 29.70in /  1005.6hPa SW 0.8mph /  1.3km/h 6mph /  9.7km/h 85% 0.00in /  0mm 0 W/m2
21:24 39.2 °F /  4 °C 34.9 °F /  1.6 °C 29.70in /  1005.6hPa SW 0.7mph /  1.1km/h 6mph /  9.7km/h 84.4% 0.00in /  0mm 0 W/m2
21:29 39.3 °F /  4.1 °C 34.9 °F /  1.6 °C 29.70in /  1005.6hPa SW 0.2mph /  0.3km/h 6mph /  9.7km/h 84% 0.00in /  0mm 0 W/m2
21:34 39.3 °F /  4.1 °C 34.9 °F /  1.6 °C 29.70in /  1005.6hPa West 3.1mph /  5km/h 9mph /  14.5km/h 84% 0.00in /  0mm 0 W/m2
21:39 39.5 °F /  4.2 °C 34.9 °F /  1.6 °C 29.70in /  1005.6hPa West 2.6mph /  4.2km/h 10mph /  16.1km/h 83.3% 0.00in /  0mm 0 W/m2
21:44 39.7 °F /  4.3 °C 34.9 °F /  1.6 °C 29.71in /  1006hPa WSW 1.3mph /  2.1km/h 10mph /  16.1km/h 82.7% 0.00in /  0mm 0 W/m2
21:49 39.8 °F /  4.3 °C 34.8 °F /  1.6 °C 29.71in /  1006hPa West 1.9mph /  3.1km/h 10mph /  16.1km/h 82% 0.00in /  0mm 0 W/m2
21:54 39.8 °F /  4.3 °C 34.7 °F /  1.5 °C 29.72in /  1006.3hPa West 1.9mph /  3.1km/h 10mph /  16.1km/h 81.5% 0.00in /  0mm 0 W/m2
21:59 39.9 °F /  4.4 °C 34.5 °F /  1.4 °C 29.73in /  1006.7hPa WSW 1.1mph /  1.8km/h 10mph /  16.1km/h 81% 0.00in /  0mm 0 W/m2
22:04 40 °F /  4.4 °C 34.6 °F /  1.4 °C 29.73in /  1006.7hPa WSW 1.2mph /  1.9km/h 10mph /  16.1km/h 80.8% 0.00in /  0mm 0 W/m2
22:09 40.2 °F /  4.6 °C 34.5 °F /  1.4 °C 29.73in /  1006.7hPa WSW 1.3mph /  2.1km/h 11mph /  17.7km/h 80% 0.00in /  0mm 0 W/m2
22:14 40.2 °F /  4.6 °C 34.5 °F /  1.4 °C 29.73in /  1006.7hPa Calm   11mph /  17.7km/h 80% 0.00in /  0mm 0 W/m2
Hartford County Weather
Compliments of Weather Underground - 2 mb